createdAt,value
2023-04-15T00:01:20.057Z,4.90
2023-04-15T00:03:47.563Z,5.30
2023-04-15T00:06:14.711Z,8.73
2023-04-15T00:08:42.471Z,6.35
2023-04-15T00:11:09.264Z,4.72
2023-04-15T00:13:36.074Z,5.70
2023-04-15T00:16:03.075Z,5.95
2023-04-15T00:18:30.137Z,4.75
2023-04-15T00:20:56.961Z,5.85
2023-04-15T00:23:23.765Z,7.40
2023-04-15T00:25:51.040Z,7.22
2023-04-15T00:28:18.127Z,5.57
2023-04-15T00:30:45.074Z,4.68
2023-04-15T00:33:12.749Z,5.95
2023-04-15T00:35:39.550Z,7.40
2023-04-15T00:38:07.989Z,6.10
2023-04-15T00:40:35.473Z,6.20
2023-04-15T00:43:02.448Z,5.88
2023-04-15T00:45:29.466Z,4.20
2023-04-15T00:47:56.835Z,8.13
2023-04-15T00:50:23.802Z,6.07
2023-04-15T00:52:50.698Z,7.00
2023-04-15T00:55:17.489Z,7.88
2023-04-15T00:57:44.971Z,4.88
2023-04-15T01:00:12.243Z,6.32
2023-04-15T01:02:39.948Z,5.95
2023-04-15T01:05:07.983Z,6.65
2023-04-15T01:07:34.878Z,6.40
2023-04-15T01:10:04.201Z,5.93
2023-04-15T01:12:33.374Z,4.63
2023-04-15T01:15:00.941Z,5.35
2023-04-15T01:17:28.291Z,6.40
2023-04-15T01:19:58.825Z,4.72
2023-04-15T01:22:27.230Z,5.97
2023-04-15T01:25:10.010Z,5.25
2023-04-15T01:27:40.032Z,4.90
2023-04-15T01:30:08.654Z,4.78
2023-04-15T01:32:35.752Z,5.27
2023-04-15T01:35:02.937Z,3.65
2023-04-15T01:37:30.027Z,5.55
2023-04-15T01:39:58.065Z,5.05
2023-04-15T01:42:24.992Z,5.40
2023-04-15T01:44:52.037Z,4.10
2023-04-15T01:47:19.064Z,4.00
2023-04-15T01:49:46.055Z,3.92
2023-04-15T01:52:13.060Z,6.55
2023-04-15T01:54:40.992Z,7.10
2023-04-15T01:57:07.804Z,4.43
2023-04-15T01:59:34.779Z,4.68
2023-04-15T02:02:01.790Z,4.05
2023-04-15T02:04:28.911Z,5.97
2023-04-15T02:06:59.828Z,5.97
2023-04-15T02:09:26.667Z,5.70
2023-04-15T02:11:54.399Z,5.45
2023-04-15T02:14:21.507Z,5.07
2023-04-15T02:16:48.515Z,5.70
2023-04-15T02:19:16.291Z,4.38
2023-04-15T02:21:43.201Z,6.13
2023-04-15T02:24:10.169Z,7.07
2023-04-15T02:26:37.385Z,5.18
2023-04-15T02:29:04.217Z,5.75
2023-04-15T02:31:34.100Z,4.82
2023-04-15T02:34:03.143Z,6.18
2023-04-15T02:36:31.674Z,4.50
2023-04-15T02:38:58.765Z,4.47
2023-04-15T02:41:28.453Z,5.68
2023-04-15T02:43:55.933Z,4.50
2023-04-15T02:46:23.037Z,4.78
2023-04-15T02:48:50.536Z,4.53
2023-04-15T02:51:22.650Z,4.78
2023-04-15T02:53:50.556Z,5.00
2023-04-15T02:56:18.068Z,4.10
2023-04-15T02:58:45.801Z,4.35
2023-04-15T03:01:12.861Z,4.60
2023-04-15T03:03:41.124Z,5.85
2023-04-15T03:06:09.046Z,4.55
2023-04-15T03:08:36.615Z,4.68
2023-04-15T03:11:04.534Z,4.05
2023-04-15T03:13:32.573Z,5.63
2023-04-15T03:16:04.539Z,5.05
2023-04-15T03:18:32.756Z,5.03
2023-04-15T03:21:02.903Z,5.65
2023-04-15T03:23:32.241Z,4.60
2023-04-15T03:26:02.648Z,4.15
2023-04-15T03:28:31.516Z,8.18
2023-04-15T03:30:59.668Z,3.63
2023-04-15T03:33:26.489Z,4.85
2023-04-15T03:35:53.765Z,4.82
2023-04-15T03:38:20.663Z,4.20
2023-04-15T03:40:47.564Z,6.03
2023-04-15T03:43:14.534Z,4.40
2023-04-15T03:45:41.389Z,4.78
2023-04-15T03:48:17.454Z,5.82
2023-04-15T03:50:45.225Z,8.23
2023-04-15T03:53:12.175Z,7.43
2023-04-15T03:55:39.249Z,5.82
2023-04-15T03:58:06.348Z,5.85
2023-04-15T04:00:33.306Z,5.57
2023-04-15T04:03:00.231Z,4.07
2023-04-15T04:05:27.533Z,4.57
2023-04-15T04:07:54.250Z,5.65
2023-04-15T04:10:21.080Z,4.68
2023-04-15T04:12:47.964Z,4.88
2023-04-15T04:15:14.740Z,5.78
2023-04-15T04:17:41.543Z,4.90
2023-04-15T04:20:08.812Z,4.75
2023-04-15T04:22:40.001Z,3.85
2023-04-15T04:25:08.589Z,5.30
2023-04-15T04:27:35.681Z,4.60
2023-04-15T04:30:02.711Z,5.28
2023-04-15T04:32:29.491Z,6.05
2023-04-15T04:34:56.537Z,8.25
2023-04-15T04:37:23.861Z,4.18
2023-04-15T04:39:50.848Z,7.40
2023-04-15T04:42:17.758Z,5.72
2023-04-15T04:44:44.733Z,5.15
2023-04-15T04:47:11.683Z,3.92
2023-04-15T04:49:38.589Z,5.13
2023-04-15T04:52:05.777Z,5.53
2023-04-15T04:54:32.692Z,6.40
2023-04-15T04:57:00.133Z,4.82
2023-04-15T04:59:27.364Z,5.55
2023-04-15T05:01:54.179Z,4.13
2023-04-15T05:04:21.612Z,4.45
2023-04-15T05:06:48.458Z,4.93
2023-04-15T05:09:15.748Z,5.18
2023-04-15T05:11:42.746Z,5.07
2023-04-15T05:14:09.990Z,5.35
2023-04-15T05:16:37.140Z,6.90
2023-04-15T05:19:04.933Z,6.28
2023-04-15T05:21:32.990Z,4.35
2023-04-15T05:24:00.166Z,6.45
2023-04-15T05:26:27.712Z,4.75
2023-04-15T05:28:55.168Z,5.78
2023-04-15T05:31:22.555Z,4.22
2023-04-15T05:33:49.667Z,5.40
2023-04-15T05:36:16.963Z,4.50
2023-04-15T05:38:43.907Z,4.60
2023-04-15T05:41:10.924Z,5.50
2023-04-15T05:43:37.909Z,5.18
2023-04-15T05:46:04.986Z,6.13
2023-04-15T05:48:32.173Z,4.25
2023-04-15T05:50:59.158Z,5.82
2023-04-15T05:53:26.282Z,6.53
2023-04-15T05:55:53.494Z,5.43
2023-04-15T05:58:21.032Z,5.22
2023-04-15T06:00:48.357Z,4.90
2023-04-15T06:03:16.008Z,7.53
2023-04-15T06:05:44.600Z,4.82
2023-04-15T06:08:11.316Z,4.05
2023-04-15T06:10:38.138Z,5.45
2023-04-15T06:13:04.871Z,4.57
2023-04-15T06:15:32.048Z,4.57
2023-04-15T06:17:58.850Z,11.73
2023-04-15T06:20:25.643Z,19.50
2023-04-15T06:22:52.370Z,8.52
2023-04-15T06:25:19.121Z,9.93
2023-04-15T06:27:46.031Z,11.48
2023-04-15T06:30:12.859Z,6.07
2023-04-15T06:32:39.673Z,15.70
2023-04-15T06:35:06.704Z,14.88
2023-04-15T06:37:33.440Z,18.08
2023-04-15T06:40:00.495Z,9.45
2023-04-15T06:42:27.458Z,8.90
2023-04-15T06:44:54.173Z,14.98
2023-04-15T06:47:20.969Z,14.13
2023-04-15T06:49:47.708Z,13.07
2023-04-15T06:52:14.497Z,17.13
2023-04-15T06:54:41.236Z,11.98
2023-04-15T06:57:09.207Z,10.43
2023-04-15T06:59:36.169Z,12.43
2023-04-15T07:02:03.087Z,13.93
2023-04-15T07:04:29.910Z,9.82
2023-04-15T07:06:56.895Z,7.68
2023-04-15T07:09:24.696Z,16.48
2023-04-15T07:11:51.560Z,7.05
2023-04-15T07:14:18.478Z,7.72
2023-04-15T07:16:45.315Z,8.70
2023-04-15T07:19:12.145Z,9.13
2023-04-15T07:21:41.235Z,12.93
2023-04-15T07:24:10.424Z,9.32
2023-04-15T07:26:37.201Z,7.20
2023-04-15T07:29:04.218Z,12.93
2023-04-15T07:31:31.404Z,10.55
2023-04-15T07:33:58.579Z,6.28
2023-04-15T07:36:25.436Z,8.32
2023-04-15T07:38:52.573Z,9.90
2023-04-15T07:41:19.337Z,13.32
2023-04-15T07:43:46.231Z,10.73
2023-04-15T07:46:13.048Z,20.58
2023-04-15T07:48:39.771Z,8.48
2023-04-15T07:51:06.699Z,9.85
2023-04-15T07:53:33.620Z,14.18
2023-04-15T07:56:00.625Z,9.02
2023-04-15T07:58:27.457Z,9.07
2023-04-15T08:00:55.219Z,12.32
2023-04-15T08:03:22.811Z,6.47
2023-04-15T08:05:49.670Z,13.82
2023-04-15T08:08:16.781Z,8.88
2023-04-15T08:10:43.576Z,7.38
2023-04-15T08:13:10.340Z,6.78
2023-04-15T08:15:37.309Z,5.20
2023-04-15T08:18:04.073Z,22.35
2023-04-15T08:20:30.782Z,19.95
2023-04-15T08:22:58.257Z,22.63
2023-04-15T08:25:24.971Z,9.15
2023-04-15T08:27:51.672Z,14.93
2023-04-15T08:30:19.348Z,13.18
2023-04-15T08:32:49.302Z,25.48
2023-04-15T08:35:16.079Z,25.63
2023-04-15T08:37:42.879Z,16.95
2023-04-15T08:40:10.785Z,39.67
2023-04-15T08:42:45.025Z,17.08
2023-04-15T08:45:11.894Z,25.27
2023-04-15T08:47:39.996Z,28.38
2023-04-15T08:50:09.345Z,17.83
2023-04-15T08:55:03.635Z,14.02
2023-04-15T08:57:30.440Z,18.45
2023-04-15T08:59:57.785Z,20.98
2023-04-15T09:02:26.411Z,24.60
2023-04-15T09:04:53.744Z,22.42
2023-04-15T09:07:20.482Z,27.58
2023-04-15T09:09:48.714Z,21.65
2023-04-15T09:12:16.914Z,19.73
2023-04-15T09:14:45.979Z,16.02
2023-04-15T09:17:12.970Z,16.75
2023-04-15T09:19:39.714Z,18.85
2023-04-15T09:22:06.674Z,19.20
2023-04-15T09:24:38.855Z,18.38
2023-04-15T09:27:06.391Z,18.98
2023-04-15T09:29:33.579Z,29.17
2023-04-15T09:32:10.861Z,19.70
2023-04-15T09:34:38.054Z,10.98
2023-04-15T09:37:04.911Z,16.25
2023-04-15T09:39:53.709Z,23.58
2023-04-15T09:42:27.311Z,25.70
2023-04-15T09:44:55.672Z,18.92
2023-04-15T09:47:32.819Z,19.63
2023-04-15T09:50:02.531Z,14.90
2023-04-15T09:52:30.163Z,8.52
2023-04-15T09:55:00.940Z,14.93
2023-04-15T09:57:35.892Z,26.95
2023-04-15T10:00:05.258Z,28.17
2023-04-15T10:02:34.135Z,30.65
2023-04-15T10:05:02.245Z,20.42
2023-04-15T10:07:29.688Z,27.42
2023-04-15T10:09:56.625Z,16.33
2023-04-15T10:12:23.474Z,10.45
2023-04-15T10:14:59.502Z,16.65
2023-04-15T10:17:31.142Z,9.23
2023-04-15T10:20:02.005Z,19.85
2023-04-15T10:22:29.161Z,38.83
2023-04-15T10:25:00.785Z,41.63
2023-04-15T10:27:28.224Z,41.80
2023-04-15T10:29:55.479Z,47.50
2023-04-15T10:32:22.664Z,42.50
2023-04-15T10:34:52.439Z,41.55
2023-04-15T10:37:37.685Z,46.25
2023-04-15T10:40:23.824Z,51.42
2023-04-15T10:42:50.671Z,49.10
2023-04-15T10:45:18.938Z,47.45
2023-04-15T10:47:45.902Z,52.90
2023-04-15T10:50:12.731Z,48.33
2023-04-15T10:52:42.651Z,52.90
2023-04-15T10:55:19.973Z,54.42
2023-04-15T10:57:46.679Z,43.70
2023-04-15T11:00:15.797Z,49.13
2023-04-15T11:02:52.314Z,51.88
2023-04-15T11:05:20.723Z,34.83
2023-04-15T11:07:52.029Z,24.50
2023-04-15T11:10:20.704Z,32.25
2023-04-15T11:12:51.177Z,19.05
2023-04-15T11:15:37.899Z,57.83
2023-04-15T11:18:14.476Z,19.05
2023-04-15T11:20:45.218Z,14.88
2023-04-15T11:23:15.279Z,18.60
2023-04-15T11:25:43.521Z,20.95
2023-04-15T11:28:12.025Z,14.02
2023-04-15T11:30:39.942Z,33.57
2023-04-15T11:33:12.108Z,19.90
2023-04-15T11:35:40.987Z,21.90
2023-04-15T11:38:13.674Z,20.52
2023-04-15T11:40:43.817Z,19.17
2023-04-15T11:43:22.048Z,18.73
2023-04-15T11:46:00.381Z,21.88
2023-04-15T11:48:32.939Z,31.58
2023-04-15T11:51:05.334Z,25.75
2023-04-15T11:53:44.114Z,25.88
2023-04-15T11:56:22.520Z,15.98
2023-04-15T11:58:53.027Z,23.02
2023-04-15T12:01:20.231Z,18.45
2023-04-15T12:03:48.398Z,15.50
2023-04-15T12:06:16.799Z,14.45
2023-04-15T12:09:16.543Z,15.07
2023-04-15T12:11:48.887Z,15.35
2023-04-15T12:14:28.482Z,18.27
2023-04-15T12:17:05.824Z,12.55
2023-04-15T12:19:37.701Z,9.85
2023-04-15T12:22:10.082Z,13.40
2023-04-15T12:24:38.040Z,12.45
2023-04-15T12:27:06.632Z,10.48
2023-04-15T12:29:35.125Z,13.38
2023-04-15T12:32:20.913Z,13.30
2023-04-15T12:34:52.264Z,7.93
2023-04-15T12:37:19.606Z,13.02
2023-04-15T12:39:49.021Z,5.07
2023-04-15T12:42:16.748Z,8.20
2023-04-15T12:44:43.785Z,8.63
2023-04-15T12:47:11.478Z,9.82
2023-04-15T12:49:39.443Z,3.55
2023-04-15T12:52:06.554Z,5.32
2023-04-15T12:54:33.705Z,5.60
2023-04-15T12:57:01.034Z,6.55
2023-04-15T12:59:28.523Z,3.40
2023-04-15T13:01:55.790Z,4.32
2023-04-15T13:04:23.043Z,2.97
2023-04-15T13:06:50.002Z,9.73
2023-04-15T13:09:16.959Z,3.15
2023-04-15T13:11:43.874Z,8.32
2023-04-15T13:14:14.056Z,10.23
2023-04-15T13:16:41.507Z,10.63
2023-04-15T13:19:08.468Z,10.60
2023-04-15T13:21:36.377Z,6.38
2023-04-15T13:24:04.865Z,10.83
2023-04-15T13:26:32.230Z,7.93
2023-04-15T13:28:59.519Z,8.98
2023-04-15T13:31:27.273Z,16.42
2023-04-15T13:33:54.176Z,11.93
2023-04-15T13:36:21.219Z,16.70
2023-04-15T13:38:50.979Z,8.57
2023-04-15T13:41:18.416Z,13.98
2023-04-15T13:43:45.700Z,14.02
2023-04-15T13:46:12.958Z,11.82
2023-04-15T13:48:40.169Z,6.18
2023-04-15T13:51:07.158Z,13.35
2023-04-15T13:53:38.251Z,11.90
2023-04-15T13:56:08.104Z,18.90
2023-04-15T13:58:35.013Z,8.18
2023-04-15T14:01:03.328Z,12.10
2023-04-15T14:03:32.511Z,12.60
2023-04-15T14:05:59.869Z,9.27
2023-04-15T14:08:26.954Z,18.55
2023-04-15T14:10:54.127Z,12.25
2023-04-15T14:13:21.849Z,26.13
2023-04-15T14:15:48.916Z,14.30
2023-04-15T14:18:16.147Z,11.88
2023-04-15T14:20:42.994Z,13.30
2023-04-15T14:23:10.015Z,14.88
2023-04-15T14:25:39.806Z,10.45
2023-04-15T14:28:07.602Z,18.05
2023-04-15T14:30:34.516Z,9.73
2023-04-15T14:33:01.494Z,8.05
2023-04-15T14:35:29.212Z,15.30
2023-04-15T14:37:56.714Z,9.15
2023-04-15T14:40:23.917Z,7.93
2023-04-15T14:42:51.536Z,6.63
2023-04-15T14:45:18.778Z,7.65
2023-04-15T14:47:45.851Z,16.88
2023-04-15T14:50:13.098Z,10.27
2023-04-15T14:52:40.297Z,26.98
2023-04-15T14:55:10.342Z,16.13
2023-04-15T14:57:41.535Z,16.98
2023-04-15T15:00:10.160Z,14.23
2023-04-15T15:02:40.333Z,28.85
2023-04-15T15:05:10.071Z,23.25
2023-04-15T15:07:38.288Z,19.00
2023-04-15T15:10:06.213Z,19.10
2023-04-15T15:12:33.375Z,14.68
2023-04-15T15:15:01.630Z,15.25
2023-04-15T15:17:30.019Z,12.18
2023-04-15T15:19:57.093Z,21.42
2023-04-15T15:22:24.660Z,23.00
2023-04-15T15:24:51.483Z,17.92
2023-04-15T15:27:18.321Z,22.02
2023-04-15T15:29:45.228Z,20.88
2023-04-15T15:32:12.135Z,17.73
2023-04-15T15:34:39.177Z,19.40
2023-04-15T15:37:06.471Z,9.15
2023-04-15T15:39:35.352Z,13.32
2023-04-15T15:44:29.300Z,11.80
2023-04-15T15:46:56.386Z,17.27
2023-04-15T15:49:23.339Z,10.68
2023-04-15T15:51:50.453Z,15.75
2023-04-15T15:54:17.921Z,13.68
2023-04-15T15:56:45.002Z,19.15
2023-04-15T15:59:11.941Z,9.68
2023-04-15T16:01:38.800Z,10.10
2023-04-15T16:04:06.002Z,9.35
2023-04-15T16:06:35.000Z,8.55
2023-04-15T16:09:02.697Z,16.02
2023-04-15T16:11:29.954Z,9.75
2023-04-15T16:13:56.797Z,13.55
2023-04-15T16:16:24.294Z,9.25
2023-04-15T16:18:51.172Z,13.15
2023-04-15T16:21:18.048Z,34.17
2023-04-15T16:23:44.895Z,29.50
2023-04-15T16:26:11.712Z,15.38
2023-04-15T16:28:38.671Z,22.98
2023-04-15T16:31:05.614Z,16.20
2023-04-15T16:33:32.568Z,15.43
2023-04-15T16:35:59.461Z,14.70
2023-04-15T16:38:26.438Z,12.13
2023-04-15T16:40:53.236Z,15.20
2023-04-15T16:43:20.066Z,9.13
2023-04-15T16:45:51.070Z,14.35
2023-04-15T16:48:19.289Z,17.42
2023-04-15T16:50:46.300Z,17.17
2023-04-15T16:53:14.457Z,16.33
2023-04-15T16:55:41.365Z,12.90
2023-04-15T16:58:08.568Z,10.10
2023-04-15T17:00:38.364Z,6.85
2023-04-15T17:03:06.171Z,12.80
2023-04-15T17:05:33.536Z,12.40
2023-04-15T17:08:00.389Z,11.90
2023-04-15T17:10:27.781Z,12.45
2023-04-15T17:12:56.648Z,12.45
2023-04-15T17:15:23.577Z,9.55
2023-04-15T17:17:50.546Z,8.15
2023-04-15T17:20:17.556Z,6.25
2023-04-15T17:22:44.454Z,5.43
2023-04-15T17:25:11.233Z,6.43
2023-04-15T17:27:38.682Z,9.02
2023-04-15T17:30:07.130Z,7.97
2023-04-15T17:32:34.998Z,12.38
2023-04-15T17:35:05.912Z,9.77
2023-04-15T17:37:33.882Z,9.27
2023-04-15T17:40:00.709Z,9.13
2023-04-15T17:42:27.576Z,7.43
2023-04-15T17:44:54.349Z,5.88
2023-04-15T17:47:21.302Z,6.22
2023-04-15T17:49:48.276Z,8.88
2023-04-15T17:52:15.120Z,6.78
2023-04-15T17:54:42.094Z,5.53
2023-04-15T17:57:09.691Z,7.25
2023-04-15T17:59:37.049Z,6.47
2023-04-15T18:02:04.026Z,5.40
2023-04-15T18:04:31.076Z,6.55
2023-04-15T18:06:57.955Z,10.00
2023-04-15T18:09:24.806Z,6.03
2023-04-15T18:11:51.605Z,5.85
2023-04-15T18:14:31.168Z,6.32
2023-04-15T18:17:01.254Z,6.18
2023-04-15T18:19:28.109Z,6.55
2023-04-15T18:21:55.087Z,13.23
2023-04-15T18:24:22.659Z,5.53
2023-04-15T18:26:49.672Z,5.63
2023-04-15T18:29:16.619Z,4.70
2023-04-15T18:31:43.988Z,5.57
2023-04-15T18:34:10.866Z,8.23
2023-04-15T18:36:37.842Z,7.68
2023-04-15T18:39:05.237Z,6.95
2023-04-15T18:41:32.638Z,7.40
2023-04-15T18:43:59.721Z,5.60
2023-04-15T18:46:27.658Z,8.05
2023-04-15T18:48:54.737Z,3.97
2023-04-15T18:51:22.362Z,6.55
2023-04-15T18:53:49.266Z,5.47
2023-04-15T18:56:16.544Z,7.63
2023-04-15T18:59:26.002Z,13.38
2023-04-15T19:01:32.036Z,9.55
2023-04-15T19:03:59.646Z,10.52
2023-04-15T19:06:27.232Z,12.68
2023-04-15T19:08:54.622Z,9.27
2023-04-15T19:11:21.808Z,6.30
2023-04-15T19:13:49.108Z,9.55
2023-04-15T19:16:16.138Z,11.25
2023-04-15T19:18:43.223Z,13.10
2023-04-15T19:21:11.246Z,11.57
2023-04-15T19:23:38.506Z,9.70
2023-04-15T19:26:08.209Z,11.50
2023-04-15T19:28:35.419Z,10.60
2023-04-15T19:31:02.244Z,10.93
2023-04-15T19:33:31.476Z,12.05
2023-04-15T19:38:27.689Z,7.78
2023-04-15T19:40:54.454Z,7.63
2023-04-15T19:43:21.257Z,9.88
2023-04-15T19:45:49.384Z,8.55
2023-04-15T19:48:16.770Z,11.20
2023-04-15T19:50:43.504Z,8.23
2023-04-15T19:53:10.339Z,10.55
2023-04-15T19:55:37.081Z,6.15
2023-04-15T19:58:03.957Z,12.30
2023-04-15T20:00:31.327Z,11.77
2023-04-15T20:02:58.503Z,4.00
2023-04-15T20:05:25.397Z,6.10
2023-04-15T20:07:53.157Z,8.90
2023-04-15T20:10:23.170Z,6.45
2023-04-15T20:12:52.609Z,6.32
2023-04-15T20:15:22.525Z,8.23
2023-04-15T20:17:50.003Z,7.43
2023-04-15T20:20:16.887Z,6.65
2023-04-15T20:22:43.687Z,5.63
2023-04-15T20:25:10.425Z,13.27
2023-04-15T20:27:37.164Z,6.22
2023-04-15T20:30:05.006Z,5.00
2023-04-15T20:32:36.036Z,5.60
2023-04-15T20:35:04.703Z,6.80
2023-04-15T20:37:33.386Z,5.55
2023-04-15T20:40:00.786Z,7.97
2023-04-15T20:42:27.607Z,4.95
2023-04-15T20:44:54.465Z,3.83
2023-04-15T20:47:21.387Z,6.75
2023-04-15T20:49:49.156Z,5.70
2023-04-15T20:52:16.363Z,7.00
2023-04-15T20:54:43.138Z,5.53
2023-04-15T20:57:09.923Z,6.30
2023-04-15T20:59:36.834Z,9.85
2023-04-15T21:02:03.688Z,7.05
2023-04-15T21:04:30.550Z,7.35
2023-04-15T21:06:57.293Z,7.40
2023-04-15T21:09:24.905Z,4.78
2023-04-15T21:14:21.480Z,6.03
2023-04-15T21:16:48.332Z,5.55
2023-04-15T21:19:15.144Z,5.13
2023-04-15T21:21:41.871Z,4.45
2023-04-15T21:24:08.783Z,6.50
2023-04-15T21:26:36.469Z,6.30
2023-04-15T21:29:03.584Z,7.47
2023-04-15T21:31:30.895Z,7.45
2023-04-15T21:33:57.784Z,7.80
2023-04-15T21:36:24.615Z,7.68
2023-04-15T21:38:51.419Z,4.35
2023-04-15T21:41:18.275Z,4.38
2023-04-15T21:43:45.036Z,5.95
2023-04-15T21:46:22.344Z,3.50
2023-04-15T21:48:54.887Z,5.55
2023-04-15T21:51:22.239Z,5.07
2023-04-15T21:53:49.279Z,5.63
2023-04-15T21:56:16.203Z,5.65
2023-04-15T21:58:43.162Z,5.80
2023-04-15T22:01:10.050Z,6.70
2023-04-15T22:03:36.995Z,6.63
2023-04-15T22:06:04.486Z,5.35
2023-04-15T22:08:44.622Z,3.80
2023-04-15T22:11:27.144Z,6.47
2023-04-15T22:13:54.669Z,6.00
2023-04-15T22:16:21.636Z,5.32
2023-04-15T22:18:48.782Z,5.68
2023-04-15T22:21:15.600Z,4.05
2023-04-15T22:23:42.451Z,5.97
2023-04-15T22:26:09.192Z,3.67
2023-04-15T22:28:35.956Z,3.95
2023-04-15T22:31:03.907Z,2.92
2023-04-15T22:33:30.729Z,4.93
2023-04-15T22:35:57.559Z,3.63
2023-04-15T22:38:25.070Z,3.90
2023-04-15T22:40:53.942Z,4.43
2023-04-15T22:43:20.791Z,3.30
2023-04-15T22:45:51.188Z,3.60
2023-04-15T22:48:18.766Z,5.07
2023-04-15T22:50:45.884Z,8.25
2023-04-15T22:53:13.053Z,5.25
2023-04-15T22:55:39.791Z,6.93
2023-04-15T22:58:06.539Z,6.32
2023-04-15T23:00:33.357Z,4.00
2023-04-15T23:03:00.707Z,3.42
2023-04-15T23:05:27.869Z,5.30
2023-04-15T23:07:54.813Z,3.47
2023-04-15T23:10:21.624Z,3.50
2023-04-15T23:12:48.464Z,4.15
2023-04-15T23:15:16.208Z,3.97
2023-04-15T23:17:43.464Z,4.20
2023-04-15T23:20:11.367Z,3.45
2023-04-15T23:22:38.632Z,4.82
2023-04-15T23:25:06.178Z,4.50
2023-04-15T23:27:33.065Z,3.10
2023-04-15T23:29:59.846Z,2.72
2023-04-15T23:32:27.397Z,3.42
2023-04-15T23:34:54.514Z,4.15
2023-04-15T23:37:21.516Z,2.97
2023-04-15T23:39:48.286Z,4.45
2023-04-15T23:42:15.087Z,3.45
2023-04-15T23:44:41.919Z,3.03
2023-04-15T23:47:09.072Z,3.08
2023-04-15T23:49:36.988Z,3.42
2023-04-15T23:52:04.136Z,4.78
2023-04-15T23:54:30.958Z,4.68
2023-04-15T23:56:57.815Z,5.30
2023-04-15T23:59:24.828Z,5.63
